Terminal Aerodrome Forecast
Issued by NWS Chicago, IL

Home | Current Version | Previous Version | Graphics & Text | Print | Product List | Glossary On
Versions: 1 2 3 4 5 6 7 8 9 10 11 12 13 14 15 16 17 18 19 20 21 22 23 24 25 26
000
FTUS43 KLOT 111748
TAFRFD
TAF
KRFD 111748Z 1118/1218 15008KT P6SM SCT080 BKN120
     FM112100 33008KT P6SM -SN SCT020 OVC050
      TEMPO 1122/1201 5SM -SHSN OVC015
     FM120100 33018G28KT P6SM -SHSN OVC025
     FM120800 33016G23KT P6SM SCT035=

USA.gov is the U.S. government's official web portal to all federal, state and local government web resources and services.